TimeMST,TemperatureF,Dew PointF,Humidity,Sea Level PressureIn,VisibilityMPH,Wind Direction,Wind SpeedMPH,Gust SpeedMPH,PrecipitationIn,Events,Conditions,WindDirDegrees,DateUTC
12:57 AM,63.0,34.0,34,29.88,10.0,Calm,Calm,-,N/A,,Clear,0,2013-06-30 07:57:00
1:57 AM,64.9,35.1,33,29.86,10.0,Calm,Calm,-,N/A,,Clear,0,2013-06-30 08:57:00
2:57 AM,64.0,35.1,34,29.88,10.0,Calm,Calm,-,N/A,,Clear,0,2013-06-30 09:57:00
3:57 AM,60.1,35.1,39,29.91,10.0,Calm,Calm,-,N/A,,Clear,0,2013-06-30 10:57:00
4:57 AM,57.0,35.1,44,29.92,10.0,Calm,Calm,-,N/A,,Clear,0,2013-06-30 11:57:00
5:57 AM,61.0,36.0,39,29.91,10.0,Calm,Calm,-,N/A,,Clear,0,2013-06-30 12:57:00
6:57 AM,66.9,39.0,36,29.92,10.0,Calm,Calm,-,N/A,,Clear,0,2013-06-30 13:57:00
7:57 AM,79.0,39.0,24,29.90,10.0,SW,5.8,-,N/A,,Clear,220,2013-06-30 14:57:00
8:57 AM,84.0,37.0,19,29.87,10.0,SW,5.8,-,N/A,,Clear,220,2013-06-30 15:57:00
9:57 AM,87.1,30.9,13,29.88,10.0,Variable,5.8,-,N/A,,Clear,0,2013-06-30 16:57:00
10:57 AM,88.0,36.0,16,29.85,10.0,SW,12.7,20.7,N/A,,Clear,220,2013-06-30 17:57:00
11:57 AM,79.0,42.1,27,29.89,10.0,Calm,Calm,-,N/A,,Mostly Cloudy,0,2013-06-30 18:57:00
12:25 PM,75.2,46.4,36,30.29,9.0,South,11.5,16.1,0.01,Rain-Thunderstorm,Light Thunderstorms and Rain,170,2013-06-30 19:25:00
12:57 PM,80.1,41.0,25,29.92,10.0,WSW,8.1,-,0.02,,Partly Cloudy,240,2013-06-30 19:57:00
1:57 PM,84.9,34.0,16,29.88,10.0,West,8.1,-,N/A,,Clear,260,2013-06-30 20:57:00
3:57 PM,86.0,30.9,14,29.84,10.0,Variable,4.6,-,N/A,,Clear,0,2013-06-30 22:57:00
4:57 PM,84.9,33.1,16,29.86,10.0,West,6.9,16.1,N/A,,Clear,260,2013-06-30 23:57:00
5:57 PM,80.1,37.9,22,29.88,10.0,Variable,5.8,16.1,0.00,,Mostly Cloudy,0,2013-07-01 00:57:00
6:57 PM,77.0,41.0,28,29.90,10.0,North,5.8,-,0.00,,Mostly Cloudy,350,2013-07-01 01:57:00
7:57 PM,73.9,41.0,30,29.86,10.0,Calm,Calm,-,N/A,,Clear,0,2013-07-01 02:57:00
8:57 PM,68.0,43.0,40,29.87,10.0,Calm,Calm,-,N/A,,Clear,0,2013-07-01 03:57:00
9:57 PM,66.0,43.0,43,29.88,10.0,NW,3.5,-,N/A,,Clear,320,2013-07-01 04:57:00
10:57 PM,66.9,42.1,40,29.87,10.0,Calm,Calm,-,N/A,,Clear,0,2013-07-01 05:57:00
11:57 PM,64.9,42.1,43,29.92,10.0,Calm,Calm,-,N/A,,Clear,0,2013-07-01 06:57:00